Great Cacapon, WV (25422)

7:28 AM EDT on July 25, 2016 (GMT -0400)
River Ridge | | Change Station

Elev 1066 ft 39.53 °N, 78.38 °W | Updated 2 seconds ago

Clear
Clear
73.9 °F
Feels Like 72 °F
N
0.0
Wind Variable Wind from SW
Gusts 1.0 mph

Today
High -- | Low -- °F
--% Chance of Precip.
Yesterday
High -- | Low -- °F
Precip. -- in
Pressure 30.05 in
Visibility 10.0 miles
Clouds Clear
Heat Index 72 °F
Dew Point 71 °F
Humidity 90%
Rainfall 0.00 in
Snow Depth Not available.
6:07 AM 8:32 PM
Waning Gibbous, 67% visible
METAR KCBE 251119Z AUTO 00000KT 10SM CLR 23/22 A3005 RMK AO1
Pressure 30.05 in
Visibility 10.0 miles
Clouds Clear
Heat Index 72 °F
Dew Point 71 °F
Humidity 90%
Rainfall 0.00 in
Snow Depth Not available.
6:07 AM 8:32 PM
Waning Gibbous, 67% visible
METAR KCBE 251119Z AUTO 00000KT 10SM CLR 23/22 A3005 RMK AO1

10-Day Weather Forecast

Almanac

Astronomy

Jul. 25, 2016 Rise Set
Actual Time
Civil Twilight
Nautical Twilight
Astronomical Twilight
Moon
Length of Visible Light
Length of Day
Tomorrow will be .
, % of the Moon is Illuminated

Today's Extremes

State Highs State Lows

Community

WunderPhotos

Upload Photos

1,927,291 photos uploaded!

WunderBlog® & News

Nearby

Air Quality

  Air Quality AQ Index Pollutant
Not available.

Snow Depth

Station Depth Elevation

Earthquake Activity

City Distance Mag. Time & Date
Minimum magnitude displayed is 2.5.

Coastal Water Temperatures

Place Temperature

Stations

Nearby Weather Stations

Station Location Temp. Windchill Dew Point Humidity Wind Precip. Elev Updated Type
                   

Watches & Warnings

There are currently no watches in effect.